Time;durP1;ratioP1;P1;durP2;ratioP2;P2;SDS_P1;SDS_P2;PMS_P1;PMS_P2;Temp;Humidity;BMP_temperature;BMP_pressure;BME280_temperature;BME280_humidity;BME280_pressure;Samples;Min_cycle;Max_cycle;Signal;HPM_P1;HPM_P2
2022/01/30 00:00:56;;;;;;;44.67;7.17;;;9.80;94.60;;;;;;5051714;28;20427;-72
2022/01/30 00:03:22;;;;;;;46.88;7.28;;;9.80;94.80;;;;;;5071463;28;20758;-70
2022/01/30 00:05:48;;;;;;;45.28;7.63;;;9.80;94.90;;;;;;5070336;28;20413;-70
2022/01/30 00:08:14;;;;;;;46.58;7.10;;;9.80;95.10;;;;;;5070698;28;20418;-70
2022/01/30 00:10:41;;;;;;;43.15;6.88;;;9.70;95.20;;;;;;5070709;28;20456;-71
2022/01/30 00:13:11;;;;;;;47.40;7.20;;;9.70;95.20;;;;;;5051985;28;20930;-71
2022/01/30 00:18:18;;;;;;;51.92;7.40;;;9.60;95.50;;;;;;5052646;28;20408;-70
2022/01/30 00:20:48;;;;;;;51.42;7.47;;;9.60;95.70;;;;;;5069295;28;20456;-70
2022/01/30 00:23:24;;;;;;;45.17;6.88;;;9.60;95.80;;;;;;5068928;28;20494;-71
2022/01/30 00:25:53;;;;;;;45.88;6.75;;;9.60;95.80;;;;;;5067907;28;20423;-71
2022/01/30 00:28:21;;;;;;;45.63;6.80;;;9.70;95.80;;;;;;5053035;28;20419;-71
2022/01/30 00:30:47;;;;;;;50.45;7.53;;;9.70;95.80;;;;;;5034950;28;20415;-70
2022/01/30 00:33:13;;;;;;;41.97;7.35;;;9.60;95.70;;;;;;5068902;28;20403;-70
2022/01/30 00:35:39;;;;;;;41.27;7.27;;;9.60;95.80;;;;;;5051274;28;20438;-69
2022/01/30 00:38:10;;;;;;;41.07;6.40;;;9.60;95.80;;;;;;5070071;28;20427;-70
2022/01/30 00:40:36;;;;;;;41.75;7.10;;;9.60;95.80;;;;;;5051448;28;20420;-70
2022/01/30 00:43:02;;;;;;;45.83;6.95;;;9.60;95.50;;;;;;5051507;28;20496;-70
2022/01/30 00:45:27;;;;;;;36.80;6.30;;;9.50;95.50;;;;;;5083914;28;20439;-70
2022/01/30 00:47:54;;;;;;;45.88;6.30;;;9.50;95.60;;;;;;5070595;28;20441;-70
2022/01/30 00:50:19;;;;;;;48.00;6.23;;;9.50;95.80;;;;;;5069311;28;20412;-71
2022/01/30 00:52:50;;;;;;;41.15;6.60;;;9.60;95.90;;;;;;5052148;28;20536;-71
2022/01/30 00:55:16;;;;;;;44.33;6.93;;;9.60;95.80;;;;;;5051598;28;20826;-71
2022/01/30 00:57:42;;;;;;;48.92;6.85;;;9.60;96.20;;;;;;5068968;28;20915;-70
2022/01/30 01:00:08;;;;;;;46.20;6.30;;;9.60;96.30;;;;;;5035235;28;20446;-70
2022/01/30 01:02:33;;;;;;;47.13;6.80;;;9.60;96.40;;;;;;5051480;28;20437;-70
2022/01/30 01:05:04;;;;;;;45.80;6.77;;;9.60;96.60;;;;;;5050805;28;20458;-69
2022/01/30 01:07:30;;;;;;;37.60;6.77;;;9.50;96.70;;;;;;5070697;28;20399;-69
2022/01/30 01:10:04;;;;;;;48.80;7.15;;;9.50;96.60;;;;;;5051250;28;20919;-71
2022/01/30 01:23:39;;;;;;;38.67;6.20;;;9.40;96.10;;;;;;5049970;28;20490;-70
2022/01/30 01:26:05;;;;;;;35.58;5.75;;;9.40;95.80;;;;;;5053111;28;20512;-70
2022/01/30 01:28:31;;;;;;;37.53;5.40;;;9.30;95.30;;;;;;5067745;28;21080;-74
2022/01/30 01:30:57;;;;;;;37.10;5.37;;;9.30;95.10;;;;;;5051362;28;20404;-72
2022/01/30 01:33:27;;;;;;;34.50;4.68;;;9.30;95.00;;;;;;5051179;28;20771;-71
2022/01/30 01:35:53;;;;;;;29.40;4.70;;;9.30;94.70;;;;;;5050690;28;20423;-70
2022/01/30 01:38:20;;;;;;;31.38;4.70;;;9.30;94.60;;;;;;5069852;28;20403;-71
2022/01/30 01:40:52;;;;;;;32.50;4.80;;;9.30;94.30;;;;;;5068875;28;20807;-71
2022/01/30 01:43:19;;;;;;;23.27;3.80;;;9.30;93.90;;;;;;5050406;28;20737;-71
2022/01/30 01:45:48;;;;;;;27.15;3.92;;;9.20;92.90;;;;;;5050813;28;21034;-71
2022/01/30 01:48:14;;;;;;;24.02;4.00;;;9.20;91.80;;;;;;5051703;28;20760;-75
2022/01/30 01:50:45;;;;;;;30.73;4.80;;;9.20;91.80;;;;;;5050022;28;20490;-71
2022/01/30 01:53:14;;;;;;;30.63;5.40;;;9.20;92.30;;;;;;5067201;28;20486;-73
2022/01/30 01:55:43;;;;;;;35.53;5.45;;;9.20;93.50;;;;;;5031897;28;20876;-73
2022/01/30 01:58:16;;;;;;;29.13;4.85;;;9.20;94.40;;;;;;5051024;28;21946;-74
2022/01/30 02:01:02;;;;;;;29.77;5.07;;;9.20;94.90;;;;;;5052916;28;20488;-71
2022/01/30 02:03:28;;;;;;;29.35;4.47;;;9.20;95.10;;;;;;5050333;28;20403;-72
2022/01/30 02:05:59;;;;;;;29.50;4.40;;;9.10;95.00;;;;;;5049127;28;20403;-74
2022/01/30 02:11:33;;;;;;;24.20;3.67;;;9.10;94.40;;;;;;5048806;28;20422;-71
2022/01/30 02:24:43;;;;;;;20.25;3.42;;;8.90;93.40;;;;;;5049575;28;20399;-73
2022/01/30 02:27:21;;;;;;;24.75;3.67;;;8.90;93.60;;;;;;5049723;28;20396;-74
2022/01/30 02:29:47;;;;;;;23.57;3.40;;;8.90;93.60;;;;;;5050067;28;20938;-74
2022/01/30 02:32:13;;;;;;;22.52;3.22;;;8.90;93.50;;;;;;5046097;28;20411;-73
2022/01/30 02:34:39;;;;;;;24.30;3.67;;;8.90;93.40;;;;;;5049317;28;20415;-72
2022/01/30 02:37:06;;;;;;;23.80;3.23;;;8.90;93.20;;;;;;5049912;28;20466;-74
2022/01/30 02:39:31;;;;;;;23.58;3.67;;;8.90;92.80;;;;;;5029681;28;21002;-73
2022/01/30 02:41:59;;;;;;;19.23;3.20;;;8.80;92.80;;;;;;5082780;28;20459;-73
2022/01/30 02:44:39;;;;;;;27.92;4.20;;;8.80;93.00;;;;;;5065913;28;20400;-73
2022/01/30 02:47:20;;;;;;;27.45;4.28;;;8.80;93.10;;;;;;5082375;28;20764;-73
2022/01/30 02:50:08;;;;;;;22.60;3.38;;;8.90;93.30;;;;;;5066664;28;20419;-73
2022/01/30 02:52:33;;;;;;;22.80;4.13;;;8.90;93.40;;;;;;5048460;28;20469;-71
2022/01/30 02:54:58;;;;;;;26.77;3.73;;;8.80;93.20;;;;;;5066949;28;20447;-71
2022/01/30 02:57:24;;;;;;;24.23;3.83;;;8.80;93.30;;;;;;5050298;28;20447;-73
2022/01/30 02:59:50;;;;;;;25.90;3.60;;;8.80;93.40;;;;;;5049438;28;20408;-73
2022/01/30 03:02:16;;;;;;;25.88;3.97;;;8.80;93.60;;;;;;5048848;28;20982;-71
2022/01/30 03:04:42;;;;;;;24.10;3.97;;;8.80;93.70;;;;;;5049394;28;20407;-71
2022/01/30 03:07:08;;;;;;;22.80;3.63;;;8.80;93.60;;;;;;5050085;28;20415;-72
2022/01/30 03:09:44;;;;;;;28.25;3.83;;;8.80;93.50;;;;;;5049298;28;20903;-72
2022/01/30 03:12:11;;;;;;;26.25;3.88;;;8.80;93.10;;;;;;5050208;28;21057;-71
2022/01/30 03:14:37;;;;;;;25.97;4.40;;;8.80;93.40;;;;;;5079998;28;20410;-71
2022/01/30 03:17:04;;;;;;;29.37;4.00;;;8.80;93.60;;;;;;5048855;28;20419;-71
2022/01/30 03:19:30;;;;;;;23.45;3.85;;;8.80;93.50;;;;;;5049217;28;20414;-72
2022/01/30 03:21:56;;;;;;;24.63;3.90;;;8.80;93.60;;;;;;5047033;28;20414;-71
2022/01/30 03:24:21;;;;;;;27.05;3.88;;;8.80;93.50;;;;;;5067206;28;20404;-72
2022/01/30 03:26:48;;;;;;;27.70;3.75;;;8.80;93.40;;;;;;5049911;28;20400;-72
2022/01/30 03:29:38;;;;;;;26.02;3.83;;;8.70;92.90;;;;;;5066087;28;20435;-74
2022/01/30 03:32:05;;;;;;;29.77;4.13;;;8.70;92.60;;;;;;5081831;28;20749;-72
2022/01/30 03:34:32;;;;;;;27.92;4.85;;;8.70;92.20;;;;;;5049172;28;20400;-73
2022/01/30 03:36:58;;;;;;;29.27;3.78;;;8.70;92.10;;;;;;5067683;28;20399;-74
2022/01/30 03:39:24;;;;;;;32.17;4.20;;;8.70;92.00;;;;;;5048962;28;20460;-73
2022/01/30 03:41:50;;;;;;;26.73;4.18;;;8.70;92.20;;;;;;5049319;28;20416;-72
2022/01/30 03:44:17;;;;;;;31.45;4.75;;;8.70;92.20;;;;;;5048909;28;20407;-73
2022/01/30 03:46:43;;;;;;;32.80;4.53;;;8.60;92.50;;;;;;5048409;28;21004;-71
2022/01/30 03:49:09;;;;;;;31.35;4.60;;;8.70;93.20;;;;;;5049741;28;20403;-74
2022/01/30 03:51:44;;;;;;;32.08;4.60;;;8.60;93.30;;;;;;5048507;28;20409;-71
2022/01/30 03:54:32;;;;;;;30.63;4.50;;;8.60;93.50;;;;;;5066364;28;20404;-73
2022/01/30 03:56:58;;;;;;;25.35;4.35;;;8.60;94.00;;;;;;5081074;28;20468;-71
2022/01/30 03:59:27;;;;;;;29.15;4.88;;;8.60;93.80;;;;;;5031660;28;20468;-70
2022/01/30 04:01:52;;;;;;;31.27;3.88;;;8.60;93.80;;;;;;5032862;28;20920;-73
2022/01/30 04:04:19;;;;;;;24.77;4.38;;;8.60;93.70;;;;;;5048730;28;20907;-74
2022/01/30 04:06:45;;;;;;;23.70;3.88;;;8.60;93.30;;;;;;5066363;28;20407;-72
2022/01/30 04:09:29;;;;;;;27.48;3.92;;;8.60;93.30;;;;;;5066919;28;20453;-73
2022/01/30 04:12:08;;;;;;;26.95;4.28;;;8.60;92.90;;;;;;5066702;28;20426;-73
2022/01/30 04:14:49;;;;;;;28.25;4.60;;;8.60;92.90;;;;;;5048683;28;20412;-73
2022/01/30 04:17:33;;;;;;;28.17;3.97;;;8.50;92.90;;;;;;5048593;28;20442;-71
2022/01/30 04:20:08;;;;;;;32.03;4.70;;;8.60;92.90;;;;;;5048735;28;20473;-72
2022/01/30 04:22:51;;;;;;;29.52;4.55;;;8.50;92.70;;;;;;5049219;28;20479;-71
2022/01/30 04:25:42;;;;;;;27.55;3.78;;;8.50;92.30;;;;;;5048690;28;20273;-72
2022/01/30 04:28:25;;;;;;;34.03;4.82;;;8.10;92.90;;;;;;5035156;28;20387;-72
2022/01/30 04:31:09;;;;;;;37.80;4.75;;;8.30;93.20;;;;;;5066791;28;20804;-73
2022/01/30 04:33:46;;;;;;;31.58;4.55;;;8.40;93.10;;;;;;5049968;28;20420;-72
2022/01/30 04:36:28;;;;;;;29.13;4.90;;;8.50;92.90;;;;;;5050150;28;20420;-73
2022/01/30 04:39:30;;;;;;;32.88;4.60;;;8.50;93.00;;;;;;5038528;28;20442;-72
2022/01/30 04:57:38;;;;;;;34.20;4.90;;;8.60;93.50;;;;;;5068884;28;20439;-72
2022/01/30 05:06:30;;;;;;;40.22;5.63;;;8.80;93.60;;;;;;5049790;28;20396;-73
2022/01/30 05:09:18;;;;;;;33.83;5.60;;;8.90;94.20;;;;;;5067924;28;20458;-72
2022/01/30 05:11:59;;;;;;;35.05;5.60;;;8.90;93.70;;;;;;5037447;28;20407;-72
2022/01/30 05:14:48;;;;;;;31.20;4.72;;;8.90;93.30;;;;;;5066956;28;20461;-73
2022/01/30 05:17:27;;;;;;;30.75;4.53;;;8.90;93.00;;;;;;5051566;28;20403;-72
2022/01/30 05:20:04;;;;;;;36.88;5.18;;;8.80;92.70;;;;;;5036062;28;20415;-73
2022/01/30 05:22:47;;;;;;;35.25;5.22;;;8.80;92.70;;;;;;5069494;28;20880;-73
2022/01/30 05:25:34;;;;;;;32.60;4.85;;;8.70;92.80;;;;;;5050868;28;20411;-72
2022/01/30 05:28:06;;;;;;;39.20;4.97;;;8.70;93.00;;;;;;5050875;28;20403;-73
2022/01/30 05:30:45;;;;;;;32.95;4.93;;;8.60;92.90;;;;;;5050322;28;20959;-71
2022/01/30 05:33:43;;;;;;;31.67;5.07;;;8.60;92.80;;;;;;5047053;28;20412;-73
2022/01/30 05:36:30;;;;;;;34.30;5.10;;;8.60;93.00;;;;;;5067693;28;20565;-71
2022/01/30 05:39:34;;;;;;;26.10;4.65;;;8.60;92.90;;;;;;5066638;28;20477;-73
2022/01/30 05:42:20;;;;;;;36.58;5.10;;;8.50;92.90;;;;;;5045357;28;20391;-72
2022/01/30 05:45:17;;;;;;;35.13;5.32;;;8.50;92.90;;;;;;5053812;28;20462;-72
2022/01/30 05:48:14;;;;;;;34.42;5.80;;;8.50;93.00;;;;;;5063752;28;20508;-70
2022/01/30 05:50:53;;;;;;;31.27;5.78;;;8.50;93.10;;;;;;5050154;28;20455;-71
2022/01/30 05:53:26;;;;;;;39.58;5.88;;;8.50;93.10;;;;;;5051241;28;20498;-71
2022/01/30 05:56:01;;;;;;;33.47;5.47;;;8.50;93.10;;;;;;5050013;28;20447;-71
2022/01/30 05:58:28;;;;;;;30.77;5.70;;;8.40;93.20;;;;;;5051500;28;20418;-73
2022/01/30 06:01:23;;;;;;;30.80;5.57;;;8.40;93.10;;;;;;5031539;28;20419;-74
2022/01/30 06:03:50;;;;;;;34.80;5.55;;;8.40;93.30;;;;;;5050193;28;22232;-73
2022/01/30 06:06:15;;;;;;;39.73;6.03;;;8.40;93.40;;;;;;5049313;28;20403;-72
2022/01/30 06:08:57;;;;;;;34.20;5.43;;;8.40;93.20;;;;;;5048685;28;20927;-72
2022/01/30 06:11:23;;;;;;;35.20;5.18;;;8.40;93.20;;;;;;5050031;28;20414;-72
2022/01/30 06:13:48;;;;;;;36.65;5.43;;;8.40;93.50;;;;;;5051431;28;20862;-71
2022/01/30 06:16:14;;;;;;;38.80;5.73;;;8.40;93.30;;;;;;5033772;28;20420;-71
2022/01/30 06:18:40;;;;;;;44.75;5.95;;;8.30;93.40;;;;;;5050774;28;20413;-73
2022/01/30 06:21:06;;;;;;;35.00;5.93;;;8.30;93.50;;;;;;5067204;28;20419;-72
2022/01/30 06:23:50;;;;;;;43.17;5.67;;;8.30;93.70;;;;;;5065427;28;20453;-71
2022/01/30 06:26:34;;;;;;;36.05;6.00;;;8.30;93.70;;;;;;5066960;28;20428;-74
2022/01/30 06:29:26;;;;;;;40.63;5.93;;;8.30;93.60;;;;;;5064300;28;20406;-72
2022/01/30 06:32:23;;;;;;;41.80;6.07;;;8.30;93.70;;;;;;5012227;28;20494;-76
2022/01/30 06:35:05;;;;;;;43.60;5.88;;;8.20;93.70;;;;;;5068141;28;20418;-73
2022/01/30 06:37:49;;;;;;;44.42;6.60;;;8.20;93.90;;;;;;5068145;28;20473;-73
2022/01/30 06:40:19;;;;;;;41.45;6.63;;;8.20;93.90;;;;;;5068509;28;20434;-74
2022/01/30 06:43:19;;;;;;;40.65;6.32;;;8.20;93.90;;;;;;5066287;28;20418;-72
2022/01/30 06:46:04;;;;;;;39.00;6.28;;;8.30;94.00;;;;;;5051358;28;20450;-75
2022/01/30 06:48:48;;;;;;;38.92;5.85;;;8.30;94.20;;;;;;5068492;28;20395;-74
2022/01/30 06:51:32;;;;;;;45.63;6.18;;;8.30;94.00;;;;;;5052610;28;20433;-75
2022/01/30 06:54:18;;;;;;;39.80;5.60;;;8.40;94.00;;;;;;5067888;28;20954;-74
2022/01/30 06:57:02;;;;;;;49.73;6.60;;;8.50;94.00;;;;;;5066993;28;20399;-73
2022/01/30 07:00:07;;;;;;;46.67;6.18;;;8.50;93.90;;;;;;5016639;28;20530;-74
2022/01/30 07:02:51;;;;;;;39.63;6.50;;;8.60;93.70;;;;;;5017621;28;20439;-74
2022/01/30 07:05:16;;;;;;;41.90;6.13;;;8.60;93.80;;;;;;5044459;28;20903;-73
2022/01/30 07:07:49;;;;;;;40.07;6.27;;;8.70;93.90;;;;;;5049315;28;20497;-73
2022/01/30 07:10:15;;;;;;;40.78;6.78;;;8.70;93.80;;;;;;5067047;28;20423;-74
2022/01/30 07:12:41;;;;;;;40.08;5.90;;;8.70;93.90;;;;;;5068698;28;20572;-75
2022/01/30 07:15:07;;;;;;;35.45;5.97;;;8.70;93.90;;;;;;5066480;28;22388;-72
2022/01/30 07:17:32;;;;;;;38.27;5.97;;;8.70;94.00;;;;;;5063096;28;20431;-73
2022/01/30 07:19:58;;;;;;;44.42;6.50;;;8.80;94.00;;;;;;5066320;28;20419;-74
2022/01/30 07:22:27;;;;;;;50.50;7.07;;;8.80;94.10;;;;;;5048112;28;20419;-73
2022/01/30 07:24:53;;;;;;;46.22;6.38;;;8.80;94.30;;;;;;5047039;28;20756;-73
2022/01/30 07:27:19;;;;;;;42.00;6.50;;;8.80;94.10;;;;;;5066102;28;20403;-74
2022/01/30 07:29:45;;;;;;;40.97;5.97;;;8.80;94.20;;;;;;5066220;28;20422;-73
2022/01/30 07:32:10;;;;;;;42.60;6.00;;;8.80;94.20;;;;;;5067376;28;20403;-75
2022/01/30 07:34:36;;;;;;;42.17;6.07;;;8.80;94.20;;;;;;5066583;28;20399;-74
2022/01/30 07:37:02;;;;;;;44.92;5.85;;;8.80;94.40;;;;;;5066751;28;20419;-72
2022/01/30 07:39:28;;;;;;;43.83;6.60;;;8.80;94.40;;;;;;5065826;28;20947;-72
2022/01/30 07:41:54;;;;;;;39.70;6.18;;;8.70;94.60;;;;;;5048232;28;20423;-74
2022/01/30 07:44:22;;;;;;;40.10;5.60;;;8.70;94.60;;;;;;5046885;28;20922;-75
2022/01/30 07:46:48;;;;;;;50.10;7.10;;;8.70;94.60;;;;;;5066440;28;20415;-72
2022/01/30 07:49:16;;;;;;;44.40;6.57;;;8.70;94.70;;;;;;5066512;28;20411;-73
2022/01/30 07:51:42;;;;;;;43.40;7.18;;;8.70;94.70;;;;;;5047680;28;20496;-73
2022/01/30 07:54:07;;;;;;;52.43;6.80;;;8.70;94.80;;;;;;5067715;28;20436;-75
2022/01/30 07:56:33;;;;;;;39.55;6.50;;;8.70;94.70;;;;;;5047363;28;20510;-77
2022/01/30 07:58:59;;;;;;;49.63;6.50;;;8.70;94.70;;;;;;5049586;28;20872;-75
2022/01/30 08:01:24;;;;;;;39.80;6.00;;;8.70;95.10;;;;;;5066184;28;20411;-73
2022/01/30 08:03:50;;;;;;;47.47;6.57;;;8.80;94.90;;;;;;5067602;28;20392;-75
2022/01/30 08:06:15;;;;;;;40.53;5.90;;;8.80;94.80;;;;;;5066837;28;20411;-76
2022/01/30 08:08:41;;;;;;;41.92;7.43;;;8.80;94.80;;;;;;5051551;28;20399;-74
2022/01/30 08:11:10;;;;;;;40.73;6.63;;;8.90;94.80;;;;;;5050920;28;20953;-76
2022/01/30 08:13:36;;;;;;;48.80;6.57;;;8.90;94.90;;;;;;5069151;28;20403;-76
2022/01/30 08:16:03;;;;;;;44.08;6.45;;;8.90;94.80;;;;;;5070532;28;20430;-73
2022/01/30 08:18:29;;;;;;;46.28;6.28;;;8.90;95.00;;;;;;5069022;28;20415;-73
2022/01/30 08:20:55;;;;;;;50.97;6.85;;;8.90;95.10;;;;;;5067104;28;21011;-76
2022/01/30 08:23:23;;;;;;;53.97;7.67;;;9.00;95.10;;;;;;5070484;28;20412;-74
2022/01/30 08:25:49;;;;;;;50.53;7.00;;;9.00;95.00;;;;;;5053431;28;20407;-74
2022/01/30 08:28:14;;;;;;;43.63;6.15;;;9.00;95.10;;;;;;5052098;28;20401;-73
2022/01/30 08:30:40;;;;;;;46.17;6.63;;;9.10;94.90;;;;;;5052588;28;20403;-76
2022/01/30 08:33:06;;;;;;;44.83;7.13;;;9.10;94.80;;;;;;5053358;28;20429;-74
2022/01/30 08:35:32;;;;;;;42.78;6.38;;;9.10;94.60;;;;;;5053321;28;20426;-73
2022/01/30 08:37:59;;;;;;;49.13;6.82;;;9.20;94.70;;;;;;5067027;28;20781;-75
2022/01/30 08:40:26;;;;;;;38.72;6.75;;;9.20;94.50;;;;;;5070210;28;20416;-76
2022/01/30 08:42:52;;;;;;;39.75;6.32;;;9.30;94.50;;;;;;5068520;28;21378;-73
2022/01/30 08:45:19;;;;;;;43.33;6.80;;;9.30;94.40;;;;;;5051412;28;20447;-73
2022/01/30 08:47:46;;;;;;;46.33;6.82;;;9.30;94.60;;;;;;5068966;28;20422;-73
2022/01/30 08:50:14;;;;;;;44.65;6.93;;;9.30;94.50;;;;;;5050531;28;20966;-73
2022/01/30 08:52:42;;;;;;;43.95;6.47;;;9.40;94.40;;;;;;5069550;28;20411;-77
2022/01/30 08:55:09;;;;;;;39.97;5.93;;;9.50;94.10;;;;;;5068384;28;20472;-74
2022/01/30 08:57:34;;;;;;;41.47;6.82;;;9.50;94.00;;;;;;5070751;28;20407;-73
2022/01/30 09:00:03;;;;;;;38.42;6.35;;;9.50;93.70;;;;;;5049808;28;20507;-73
2022/01/30 09:02:28;;;;;;;45.05;6.22;;;9.60;93.80;;;;;;5049732;28;20399;-73
2022/01/30 09:04:54;;;;;;;44.27;6.23;;;9.60;93.90;;;;;;5051973;28;20839;-75
2022/01/30 09:07:20;;;;;;;45.45;6.00;;;9.70;93.80;;;;;;5048409;28;20848;-72
2022/01/30 09:09:46;;;;;;;33.67;5.80;;;10.20;93.90;;;;;;5064841;28;20442;-75
2022/01/30 09:12:12;;;;;;;40.63;6.33;;;11.10;92.60;;;;;;5065041;28;20407;-74
2022/01/30 09:14:40;;;;;;;37.67;6.37;;;12.40;90.00;;;;;;5064477;28;20464;-74
2022/01/30 09:17:12;;;;;;;;;;;13.50;84.20;;;;;;5067779;28;20051;-75
2022/01/30 09:19:42;;;;;;;26.30;4.97;;;13.50;88.20;;;;;;5066358;28;20651;-74
2022/01/30 09:22:09;;;;;;;32.53;5.32;;;13.60;90.10;;;;;;5046538;28;20472;-74
2022/01/30 09:24:36;;;;;;;32.33;6.28;;;15.20;75.40;;;;;;5066606;28;20404;-72
2022/01/30 09:27:02;;;;;;;36.83;6.25;;;16.40;66.80;;;;;;5064705;28;20422;-75
2022/01/30 09:29:28;;;;;;;31.23;5.70;;;17.00;61.40;;;;;;5065864;28;20408;-72
2022/01/30 09:31:55;;;;;;;40.65;6.40;;;17.60;57.90;;;;;;5046111;28;20480;-76
2022/01/30 09:34:21;;;;;;;34.38;8.48;;;18.00;55.80;;;;;;5065233;28;20426;-73
2022/01/30 09:36:46;;;;;;;31.40;5.97;;;18.20;54.60;;;;;;5065902;28;20423;-71
2022/01/30 09:39:12;;;;;;;35.78;5.97;;;18.50;53.20;;;;;;5072656;28;20410;-72
2022/01/30 09:41:38;;;;;;;31.25;6.30;;;18.70;52.70;;;;;;5047688;28;20423;-73
2022/01/30 09:44:04;;;;;;;33.50;6.27;;;19.00;52.10;;;;;;5046186;28;20403;-72
2022/01/30 09:46:30;;;;;;;31.27;6.30;;;19.40;51.10;;;;;;5048160;28;20900;-73
2022/01/30 09:48:58;;;;;;;35.37;6.67;;;19.90;48.80;;;;;;5045929;28;20459;-73
2022/01/30 09:51:24;;;;;;;38.50;7.18;;;20.00;47.60;;;;;;5066333;28;20449;-72
2022/01/30 09:53:50;;;;;;;38.03;7.00;;;19.40;48.20;;;;;;5065268;28;20429;-73
2022/01/30 09:56:18;;;;;;;31.65;6.53;;;19.00;49.70;;;;;;5063432;28;20399;-73
2022/01/30 09:58:45;;;;;;;38.38;7.13;;;19.00;48.60;;;;;;5062059;28;20494;-71
2022/01/30 10:01:11;;;;;;;38.90;7.18;;;19.20;48.90;;;;;;5061623;28;20423;-72
2022/01/30 10:03:37;;;;;;;35.73;6.43;;;19.40;47.60;;;;;;5062567;28;20418;-76
2022/01/30 10:06:12;;;;;;;31.07;6.07;;;19.80;46.60;;;;;;5063172;28;20764;-74
2022/01/30 10:08:43;;;;;;;38.85;6.70;;;20.40;46.70;;;;;;5062132;28;20412;-70
2022/01/30 10:11:30;;;;;;;35.42;6.45;;;20.80;44.50;;;;;;5061697;28;20418;-75
2022/01/30 10:14:10;;;;;;;36.40;6.75;;;20.40;44.50;;;;;;5063243;28;20429;-75
2022/01/30 10:16:45;;;;;;;34.70;7.50;;;19.50;44.60;;;;;;5060564;28;20443;-75
2022/01/30 10:19:20;;;;;;;40.17;7.05;;;18.60;45.00;;;;;;5059191;28;20916;-74
2022/01/30 10:22:11;;;;;;;32.40;6.05;;;17.60;45.60;;;;;;5061799;28;20415;-73
2022/01/30 10:24:38;;;;;;;35.40;6.32;;;17.30;47.40;;;;;;5061118;28;20411;-71
2022/01/30 10:27:27;;;;;;;37.55;6.32;;;17.90;46.90;;;;;;5061660;28;20450;-71
2022/01/30 10:29:58;;;;;;;34.95;7.00;;;18.00;46.20;;;;;;5061830;28;20741;-72
2022/01/30 10:32:26;;;;;;;40.25;6.60;;;17.60;46.80;;;;;;5060577;28;20465;-75
2022/01/30 10:35:05;;;;;;;33.15;6.20;;;17.10;47.60;;;;;;5061025;28;21289;-74
2022/01/30 10:37:31;;;;;;;42.33;6.65;;;16.80;48.90;;;;;;5060736;28;20410;-73
2022/01/30 10:40:03;;;;;;;33.13;5.82;;;16.30;49.50;;;;;;5064322;28;20187;-72
2022/01/30 10:42:32;;;;;;;27.27;5.25;;;15.40;51.30;;;;;;5062512;28;20187;-75
2022/01/30 10:44:58;;;;;;;;;;;14.60;52.90;;;;;;5076505;28;20036;-75
2022/01/30 10:47:24;;;;;;;35.92;5.95;;;13.90;53.80;;;;;;5048482;28;20193;-75
2022/01/30 10:49:50;;;;;;;44.45;7.07;;;13.50;55.40;;;;;;5045452;28;21238;-76
2022/01/30 10:52:16;;;;;;;32.27;6.23;;;14.00;55.10;;;;;;5045272;28;20412;-74
2022/01/30 10:54:42;;;;;;;42.40;6.53;;;14.50;54.60;;;;;;5061210;28;20498;-71
2022/01/30 10:57:10;;;;;;;32.67;6.78;;;14.90;53.50;;;;;;5061222;28;20398;-73
2022/01/30 10:59:42;;;;;;;31.58;5.97;;;15.20;54.00;;;;;;5060605;28;20450;-71
2022/01/30 11:02:16;;;;;;;36.78;6.18;;;15.30;52.90;;;;;;5062095;28;20419;-69
2022/01/30 11:04:59;;;;;;;34.92;6.18;;;15.40;53.20;;;;;;5061636;28;20797;-72
2022/01/30 11:07:28;;;;;;;47.73;6.83;;;15.20;52.70;;;;;;5059201;28;20454;-70
2022/01/30 11:09:57;;;;;;;40.60;8.50;;;15.00;53.40;;;;;;5063332;28;20413;-71
2022/01/30 11:12:34;;;;;;;38.85;6.55;;;15.00;54.50;;;;;;5067250;28;20399;-71
2022/01/30 11:15:20;;;;;;;32.60;5.95;;;15.60;53.90;;;;;;5068769;28;20189;-71
2022/01/30 11:17:47;;;;;;;34.85;5.47;;;15.50;55.30;;;;;;5066225;28;20253;-70
2022/01/30 11:20:13;;;;;;;33.38;6.13;;;15.70;55.90;;;;;;5043212;28;20947;-72
2022/01/30 11:22:40;;;;;;;31.17;6.40;;;16.70;51.00;;;;;;5054447;28;20494;-70
2022/01/30 11:25:12;;;;;;;36.35;6.35;;;17.00;49.00;;;;;;5053087;28;20413;-71
2022/01/30 11:27:42;;;;;;;32.28;6.05;;;17.00;48.80;;;;;;5052625;28;20495;-71
2022/01/30 11:30:08;;;;;;;30.97;6.03;;;17.10;47.90;;;;;;5056962;28;20450;-70
2022/01/30 11:32:34;;;;;;;32.92;6.35;;;17.20;47.40;;;;;;5059017;28;20950;-71
2022/01/30 11:35:00;;;;;;;36.03;6.20;;;17.10;47.50;;;;;;5053887;28;20413;-69
2022/01/30 11:37:28;;;;;;;31.67;5.63;;;16.90;48.20;;;;;;5056332;28;20270;-73
2022/01/30 11:39:54;;;;;;;30.52;5.40;;;16.00;50.20;;;;;;5059525;28;20684;-68
2022/01/30 11:42:23;;;;;;;32.67;5.30;;;15.30;51.70;;;;;;5056127;28;20289;-70
2022/01/30 11:44:50;;;;;;;27.85;6.00;;;14.80;53.20;;;;;;5065163;28;20614;-72
2022/01/30 11:47:20;;;;;;;31.65;5.22;;;14.60;54.30;;;;;;5072063;28;20186;-73
2022/01/30 11:49:50;;;;;;;34.80;5.82;;;14.20;55.00;;;;;;5074880;28;20279;-69
2022/01/30 11:52:17;;;;;;;;;;;13.90;55.80;;;;;;5074396;28;20358;-70
2022/01/30 11:54:50;;;;;;;37.40;6.30;;;13.50;56.50;;;;;;5055199;28;20416;-69
2022/01/30 11:57:22;;;;;;;37.10;6.00;;;14.30;56.50;;;;;;5088283;28;20753;-69
2022/01/30 11:59:55;;;;;;;38.53;7.03;;;15.10;53.90;;;;;;5088211;28;20478;-71
2022/01/30 12:02:20;;;;;;;28.02;5.70;;;15.70;52.50;;;;;;5074126;28;20214;-71
2022/01/30 12:05:05;;;;;;;31.48;5.63;;;15.50;54.20;;;;;;5074692;28;20229;-71
2022/01/30 12:07:48;;;;;;;32.63;5.78;;;15.50;55.20;;;;;;5074988;28;20236;-71
2022/01/30 12:10:24;;;;;;;39.92;6.10;;;15.60;55.40;;;;;;5054649;28;20177;-70
2022/01/30 12:13:04;;;;;;;35.15;5.40;;;15.30;55.30;;;;;;5074049;28;20658;-70
2022/01/30 12:15:38;;;;;;;36.33;5.97;;;14.80;55.60;;;;;;5075244;28;20511;-71
2022/01/30 12:18:08;;;;;;;30.58;4.82;;;14.40;55.90;;;;;;5074451;28;20185;-72
2022/01/30 12:20:56;;;;;;;39.67;6.13;;;13.90;56.40;;;;;;5050223;28;20210;-70
2022/01/30 12:23:43;;;;;;;32.60;5.78;;;13.70;57.40;;;;;;5070766;28;20869;-71
2022/01/30 12:26:15;;;;;;;32.45;5.18;;;13.80;58.00;;;;;;5074781;28;20186;-71
2022/01/30 12:28:54;;;;;;;33.42;5.90;;;13.90;57.80;;;;;;5074597;28;20174;-69
2022/01/30 12:31:31;;;;;;;32.55;4.95;;;13.90;57.80;;;;;;5074417;28;20186;-70
2022/01/30 12:34:05;;;;;;;28.15;5.53;;;14.00;58.00;;;;;;5073644;28;20201;-71
2022/01/30 12:36:35;;;;;;;28.27;5.22;;;14.10;58.10;;;;;;5066690;28;20320;-71
2022/01/30 12:39:03;;;;;;;29.30;5.15;;;14.20;57.90;;;;;;5061932;28;20202;-71
2022/01/30 12:41:30;;;;;;;32.03;5.18;;;14.20;58.10;;;;;;5069931;28;20215;-72
2022/01/30 12:44:08;;;;;;;32.38;5.05;;;14.20;58.00;;;;;;5073679;28;20643;-71
2022/01/30 12:46:46;;;;;;;29.30;5.00;;;14.20;57.80;;;;;;5077783;28;20183;-69
2022/01/30 12:49:17;;;;;;;28.30;5.10;;;14.20;57.60;;;;;;5065476;28;20639;-69
2022/01/30 12:51:49;;;;;;;28.17;5.25;;;14.30;57.70;;;;;;5074705;28;20190;-70
2022/01/30 12:54:21;;;;;;;26.42;5.40;;;14.50;57.50;;;;;;5071650;28;20182;-72
2022/01/30 12:56:49;;;;;;;24.98;4.60;;;14.80;57.40;;;;;;5072411;28;20200;-70
2022/01/30 12:59:17;;;;;;;34.15;5.40;;;15.00;56.90;;;;;;5072122;28;20182;-71
2022/01/30 13:01:44;;;;;;;29.67;5.18;;;15.20;56.60;;;;;;5071616;28;20210;-70
2022/01/30 13:04:15;;;;;;;30.27;5.50;;;15.20;56.10;;;;;;5071892;28;20243;-70
2022/01/30 13:06:49;;;;;;;40.05;5.90;;;14.90;55.90;;;;;;5053444;28;20191;-71
2022/01/30 13:09:32;;;;;;;37.35;6.18;;;14.60;56.30;;;;;;5071281;28;20182;-71
2022/01/30 13:12:00;;;;;;;42.45;5.93;;;14.30;56.80;;;;;;5070585;28;21958;-70
2022/01/30 13:14:37;;;;;;;35.03;5.43;;;14.10;57.30;;;;;;5071701;28;20193;-73
2022/01/30 13:17:04;;;;;;;31.95;6.15;;;13.80;57.50;;;;;;5053509;28;20197;-72
2022/01/30 13:19:36;;;;;;;32.92;5.93;;;13.70;58.00;;;;;;5070848;28;20187;-71
2022/01/30 13:22:04;;;;;;;29.25;5.47;;;13.60;58.40;;;;;;5067677;28;20580;-72
2022/01/30 13:24:30;;;;;;;28.55;5.25;;;13.70;58.50;;;;;;5053447;28;20196;-70
2022/01/30 13:27:04;;;;;;;31.90;4.90;;;13.60;58.20;;;;;;5070727;28;20186;-70
2022/01/30 13:29:33;;;;;;;32.70;5.47;;;13.60;58.60;;;;;;5070447;28;20199;-69
2022/01/30 13:32:07;;;;;;;30.33;5.30;;;13.50;58.60;;;;;;5068687;28;20194;-72
2022/01/30 13:34:34;;;;;;;36.80;6.05;;;13.40;58.60;;;;;;5059660;28;20469;-72
2022/01/30 13:37:05;;;;;;;32.47;5.15;;;14.10;56.40;;;;;;5056005;28;20352;-72
2022/01/30 13:39:44;;;;;;;43.92;7.32;;;13.80;57.10;;;;;;5060232;28;20217;-71
2022/01/30 13:47:41;;;;;;;31.25;5.00;;;13.00;59.20;;;;;;5055459;28;20302;-72
2022/01/30 13:50:17;;;;;;;35.95;5.63;;;12.90;59.70;;;;;;5056700;28;20183;-70
2022/01/30 13:52:44;;;;;;;33.10;5.47;;;12.80;59.90;;;;;;5055605;28;22240;-69
2022/01/30 13:55:10;;;;;;;33.63;5.40;;;12.80;60.20;;;;;;5059436;28;20205;-70
2022/01/30 13:57:37;;;;;;;28.08;5.10;;;12.80;60.70;;;;;;5055338;28;20244;-71
2022/01/30 14:00:17;;;;;;;36.20;4.90;;;12.80;60.80;;;;;;5054899;28;20649;-71